sensor_id;sensor_type;location;lat;lon;timestamp;pressure;altitude;pressure_sealevel;temperature;humidity
21401;BME280;18038;50.166;18.908;2023-01-30T00:00:00;98049.41;;;-6.04;70.12
21401;BME280;18038;50.166;18.908;2023-01-30T00:03:10;98048.97;;;-5.96;69.99
21401;BME280;18038;50.166;18.908;2023-01-30T00:06:18;98044.22;;;-6.04;70.12
21401;BME280;18038;50.166;18.908;2023-01-30T00:09:26;98040.22;;;-6.09;70.28
21401;BME280;18038;50.166;18.908;2023-01-30T00:12:33;98041.22;;;-6.12;70.38
21401;BME280;18038;50.166;18.908;2023-01-30T00:15:39;98034.19;;;-6.10;70.57
21401;BME280;18038;50.166;18.908;2023-01-30T00:18:50;98020.88;;;-6.05;70.70
21401;BME280;18038;50.166;18.908;2023-01-30T00:21:56;98010.94;;;-6.13;70.87
21401;BME280;18038;50.166;18.908;2023-01-30T00:25:03;98001.56;;;-6.01;70.72
21401;BME280;18038;50.166;18.908;2023-01-30T00:28:10;97992.13;;;-6.02;70.79
21401;BME280;18038;50.166;18.908;2023-01-30T00:31:16;97981.38;;;-6.26;71.78
21401;BME280;18038;50.166;18.908;2023-01-30T00:34:27;97970.03;;;-6.39;72.13
21401;BME280;18038;50.166;18.908;2023-01-30T00:37:33;97979.91;;;-6.45;72.88
21401;BME280;18038;50.166;18.908;2023-01-30T00:40:40;97981.41;;;-6.56;73.42
21401;BME280;18038;50.166;18.908;2023-01-30T00:43:47;97969.81;;;-6.65;73.76
21401;BME280;18038;50.166;18.908;2023-01-30T00:47:05;97977.09;;;-6.72;74.18
21401;BME280;18038;50.166;18.908;2023-01-30T00:50:15;97967.09;;;-6.63;74.00
21401;BME280;18038;50.166;18.908;2023-01-30T00:53:20;97972.06;;;-6.89;74.88
21401;BME280;18038;50.166;18.908;2023-01-30T00:56:27;97967.16;;;-6.79;74.81
21401;BME280;18038;50.166;18.908;2023-01-30T00:59:33;97962.53;;;-6.74;74.53
21401;BME280;18038;50.166;18.908;2023-01-30T01:02:40;97943.13;;;-6.83;75.15
21401;BME280;18038;50.166;18.908;2023-01-30T01:05:50;97938.28;;;-6.89;75.14
21401;BME280;18038;50.166;18.908;2023-01-30T01:08:57;97938.00;;;-6.84;75.52
21401;BME280;18038;50.166;18.908;2023-01-30T01:12:04;97939.72;;;-6.99;75.75
21401;BME280;18038;50.166;18.908;2023-01-30T01:15:12;97921.16;;;-7.07;76.11
21401;BME280;18038;50.166;18.908;2023-01-30T01:18:21;97911.75;;;-6.94;76.03
21401;BME280;18038;50.166;18.908;2023-01-30T01:21:32;97910.22;;;-6.98;76.30
21401;BME280;18038;50.166;18.908;2023-01-30T01:24:48;97915.28;;;-7.11;77.04
21401;BME280;18038;50.166;18.908;2023-01-30T01:27:55;97910.59;;;-7.04;77.06
21401;BME280;18038;50.166;18.908;2023-01-30T01:31:07;97887.38;;;-6.92;76.99
21401;BME280;18038;50.166;18.908;2023-01-30T01:34:16;97889.03;;;-6.91;77.65
21401;BME280;18038;50.166;18.908;2023-01-30T01:37:24;97885.22;;;-6.85;77.81
21401;BME280;18038;50.166;18.908;2023-01-30T01:40:31;97887.81;;;-6.85;77.81
21401;BME280;18038;50.166;18.908;2023-01-30T01:44:03;97883.31;;;-6.81;77.88
21401;BME280;18038;50.166;18.908;2023-01-30T01:47:17;97865.31;;;-6.70;77.67
21401;BME280;18038;50.166;18.908;2023-01-30T01:50:27;97841.13;;;-6.71;77.61
21401;BME280;18038;50.166;18.908;2023-01-30T01:53:52;97842.25;;;-6.60;77.40
21401;BME280;18038;50.166;18.908;2023-01-30T01:57:05;97819.59;;;-6.73;77.74
21401;BME280;18038;50.166;18.908;2023-01-30T02:00:20;97798.69;;;-6.85;77.97
21401;BME280;18038;50.166;18.908;2023-01-30T02:03:31;97790.84;;;-6.84;77.91
21401;BME280;18038;50.166;18.908;2023-01-30T02:06:42;97781.53;;;-6.88;78.24
21401;BME280;18038;50.166;18.908;2023-01-30T02:09:52;97775.13;;;-6.82;78.05
21401;BME280;18038;50.166;18.908;2023-01-30T02:12:59;97780.53;;;-6.85;77.81
21401;BME280;18038;50.166;18.908;2023-01-30T02:16:07;97770.41;;;-6.76;77.66
21401;BME280;18038;50.166;18.908;2023-01-30T02:19:24;97773.22;;;-6.79;77.55
21401;BME280;18038;50.166;18.908;2023-01-30T02:23:09;97766.50;;;-6.69;77.23
21401;BME280;18038;50.166;18.908;2023-01-30T02:31:06;97752.31;;;-6.77;77.37
21401;BME280;18038;50.166;18.908;2023-01-30T02:34:41;97748.16;;;-6.66;77.07
21401;BME280;18038;50.166;18.908;2023-01-30T02:38:08;97738.69;;;-6.67;76.95
21401;BME280;18038;50.166;18.908;2023-01-30T02:41:34;97736.63;;;-6.61;76.96
21401;BME280;18038;50.166;18.908;2023-01-30T02:45:04;97738.13;;;-6.57;76.83
21401;BME280;18038;50.166;18.908;2023-01-30T02:48:31;97735.72;;;-6.60;76.58
21401;BME280;18038;50.166;18.908;2023-01-30T02:51:48;97714.91;;;-6.46;76.46
21401;BME280;18038;50.166;18.908;2023-01-30T02:54:55;97712.84;;;-6.41;76.34
21401;BME280;18038;50.166;18.908;2023-01-30T02:58:03;97705.97;;;-6.42;76.53
21401;BME280;18038;50.166;18.908;2023-01-30T03:01:34;97724.88;;;-6.26;76.18
21401;BME280;18038;50.166;18.908;2023-01-30T03:05:23;97729.78;;;-6.21;76.01
21401;BME280;18038;50.166;18.908;2023-01-30T03:08:55;97731.19;;;-6.30;75.87
21401;BME280;18038;50.166;18.908;2023-01-30T03:12:17;97724.88;;;-6.26;75.81
21401;BME280;18038;50.166;18.908;2023-01-30T03:15:34;97717.44;;;-6.17;75.36
21401;BME280;18038;50.166;18.908;2023-01-30T03:18:47;97707.22;;;-6.20;75.13
21401;BME280;18038;50.166;18.908;2023-01-30T03:21:56;97705.34;;;-6.18;74.89
21401;BME280;18038;50.166;18.908;2023-01-30T03:25:06;97704.31;;;-6.16;75.13
21401;BME280;18038;50.166;18.908;2023-01-30T03:28:17;97700.81;;;-6.15;74.64
21401;BME280;18038;50.166;18.908;2023-01-30T03:31:25;97697.19;;;-6.12;74.64
21401;BME280;18038;50.166;18.908;2023-01-30T03:34:32;97697.53;;;-6.18;74.71
21401;BME280;18038;50.166;18.908;2023-01-30T03:37:42;97693.09;;;-6.16;74.57
21401;BME280;18038;50.166;18.908;2023-01-30T03:40:48;97692.53;;;-6.22;74.76
21401;BME280;18038;50.166;18.908;2023-01-30T03:43:55;97675.50;;;-6.13;74.46
21401;BME280;18038;50.166;18.908;2023-01-30T03:47:01;97673.44;;;-6.20;74.28
21401;BME280;18038;50.166;18.908;2023-01-30T03:50:10;97675.84;;;-6.17;74.57
21401;BME280;18038;50.166;18.908;2023-01-30T03:53:21;97669.16;;;-6.22;74.83
21401;BME280;18038;50.166;18.908;2023-01-30T03:56:29;97668.66;;;-6.14;74.31
21401;BME280;18038;50.166;18.908;2023-01-30T03:59:35;97665.13;;;-6.13;74.11
21401;BME280;18038;50.166;18.908;2023-01-30T04:02:45;97661.47;;;-6.10;74.43
21401;BME280;18038;50.166;18.908;2023-01-30T04:05:52;97658.78;;;-6.09;73.86
21401;BME280;18038;50.166;18.908;2023-01-30T04:09:01;97644.03;;;-6.08;73.87
21401;BME280;18038;50.166;18.908;2023-01-30T04:12:16;97641.34;;;-6.07;73.97
21401;BME280;18038;50.166;18.908;2023-01-30T04:15:29;97639.78;;;-6.09;73.89
21401;BME280;18038;50.166;18.908;2023-01-30T04:18:55;97623.03;;;-6.05;73.42
21401;BME280;18038;50.166;18.908;2023-01-30T04:22:05;97619.38;;;-6.15;73.71
21401;BME280;18038;50.166;18.908;2023-01-30T04:25:14;97601.28;;;-6.17;73.74
21401;BME280;18038;50.166;18.908;2023-01-30T04:28:22;97602.84;;;-6.14;73.73
21401;BME280;18038;50.166;18.908;2023-01-30T04:31:28;97591.91;;;-6.19;73.48
21401;BME280;18038;50.166;18.908;2023-01-30T04:34:50;97592.19;;;-6.24;73.88
21401;BME280;18038;50.166;18.908;2023-01-30T04:37:56;97593.97;;;-6.25;73.91
21401;BME280;18038;50.166;18.908;2023-01-30T04:41:06;97593.72;;;-6.07;73.41
21401;BME280;18038;50.166;18.908;2023-01-30T04:44:15;97592.13;;;-5.97;73.02
21401;BME280;18038;50.166;18.908;2023-01-30T04:47:35;97599.44;;;-6.02;73.08
21401;BME280;18038;50.166;18.908;2023-01-30T04:50:42;97592.66;;;-6.05;73.00
21401;BME280;18038;50.166;18.908;2023-01-30T04:53:52;97586.94;;;-6.10;73.28
21401;BME280;18038;50.166;18.908;2023-01-30T04:57:01;97585.56;;;-6.03;72.97
21401;BME280;18038;50.166;18.908;2023-01-30T05:00:19;97563.66;;;-5.98;72.74
21401;BME280;18038;50.166;18.908;2023-01-30T05:03:32;97577.19;;;-5.81;72.48
21401;BME280;18038;50.166;18.908;2023-01-30T05:06:39;97555.53;;;-5.81;72.56
21401;BME280;18038;50.166;18.908;2023-01-30T05:09:45;97552.63;;;-5.77;71.98
21401;BME280;18038;50.166;18.908;2023-01-30T05:12:55;97539.63;;;-5.77;71.72
21401;BME280;18038;50.166;18.908;2023-01-30T05:16:01;97536.50;;;-5.82;71.73
21401;BME280;18038;50.166;18.908;2023-01-30T05:19:11;97541.81;;;-5.83;71.66
21401;BME280;18038;50.166;18.908;2023-01-30T05:22:17;97530.06;;;-5.89;71.50
21401;BME280;18038;50.166;18.908;2023-01-30T05:25:24;97528.06;;;-5.98;71.68
21401;BME280;18038;50.166;18.908;2023-01-30T05:28:32;97513.00;;;-5.80;71.03
21401;BME280;18038;50.166;18.908;2023-01-30T05:31:39;97502.69;;;-5.82;71.11
21401;BME280;18038;50.166;18.908;2023-01-30T05:34:47;97493.22;;;-5.83;71.13
21401;BME280;18038;50.166;18.908;2023-01-30T05:37:55;97502.59;;;-5.80;70.78
21401;BME280;18038;50.166;18.908;2023-01-30T05:41:07;97486.38;;;-5.84;70.71
21401;BME280;18038;50.166;18.908;2023-01-30T05:44:28;97501.41;;;-5.76;70.57
21401;BME280;18038;50.166;18.908;2023-01-30T05:47:34;97483.53;;;-5.68;70.27
21401;BME280;18038;50.166;18.908;2023-01-30T05:50:40;97484.16;;;-5.64;70.01
21401;BME280;18038;50.166;18.908;2023-01-30T05:53:46;97466.16;;;-5.67;70.21
21401;BME280;18038;50.166;18.908;2023-01-30T05:56:53;97450.53;;;-5.54;70.22
21401;BME280;18038;50.166;18.908;2023-01-30T06:00:02;97451.66;;;-5.59;70.04
21401;BME280;18038;50.166;18.908;2023-01-30T06:03:14;97437.63;;;-5.69;70.18
21401;BME280;18038;50.166;18.908;2023-01-30T06:06:21;97429.81;;;-5.69;70.19
21401;BME280;18038;50.166;18.908;2023-01-30T06:09:28;97438.59;;;-5.70;70.15
21401;BME280;18038;50.166;18.908;2023-01-30T06:12:34;97412.56;;;-5.70;70.02
21401;BME280;18038;50.166;18.908;2023-01-30T06:15:44;97416.38;;;-5.63;69.60
21401;BME280;18038;50.166;18.908;2023-01-30T06:18:57;97408.72;;;-5.77;69.81
21401;BME280;18038;50.166;18.908;2023-01-30T06:22:06;97426.31;;;-5.68;69.75
21401;BME280;18038;50.166;18.908;2023-01-30T06:25:12;97438.34;;;-5.67;69.64
21401;BME280;18038;50.166;18.908;2023-01-30T06:28:21;97418.06;;;-5.62;69.70
21401;BME280;18038;50.166;18.908;2023-01-30T06:31:32;97420.97;;;-5.66;69.65
21401;BME280;18038;50.166;18.908;2023-01-30T06:34:39;97424.81;;;-5.59;69.58
21401;BME280;18038;50.166;18.908;2023-01-30T06:37:45;97411.63;;;-5.45;69.14
21401;BME280;18038;50.166;18.908;2023-01-30T06:40:51;97418.84;;;-5.48;69.21
21401;BME280;18038;50.166;18.908;2023-01-30T06:43:57;97408.31;;;-5.47;68.80
21401;BME280;18038;50.166;18.908;2023-01-30T06:47:06;97409.59;;;-5.28;68.75
21401;BME280;18038;50.166;18.908;2023-01-30T06:50:13;97398.53;;;-5.43;68.56
21401;BME280;18038;50.166;18.908;2023-01-30T06:53:21;97407.75;;;-5.39;68.63
21401;BME280;18038;50.166;18.908;2023-01-30T06:56:32;97398.41;;;-5.42;68.33
21401;BME280;18038;50.166;18.908;2023-01-30T06:59:38;97406.84;;;-5.38;68.08
21401;BME280;18038;50.166;18.908;2023-01-30T07:02:47;97406.22;;;-5.42;68.44
21401;BME280;18038;50.166;18.908;2023-01-30T07:05:58;97400.97;;;-5.29;68.33
21401;BME280;18038;50.166;18.908;2023-01-30T07:09:04;97401.41;;;-5.35;68.42
21401;BME280;18038;50.166;18.908;2023-01-30T07:12:10;97402.75;;;-5.29;68.04
21401;BME280;18038;50.166;18.908;2023-01-30T07:15:16;97388.63;;;-5.38;68.21
21401;BME280;18038;50.166;18.908;2023-01-30T07:18:26;97371.50;;;-5.29;67.96
21401;BME280;18038;50.166;18.908;2023-01-30T07:21:35;97356.75;;;-5.42;68.72
21401;BME280;18038;50.166;18.908;2023-01-30T07:24:41;97345.16;;;-5.49;68.79
21401;BME280;18038;50.166;18.908;2023-01-30T07:27:50;97363.16;;;-5.46;69.05
21401;BME280;18038;50.166;18.908;2023-01-30T07:30:58;97359.53;;;-5.32;68.68
21401;BME280;18038;50.166;18.908;2023-01-30T07:34:07;97345.22;;;-5.26;68.30
21401;BME280;18038;50.166;18.908;2023-01-30T07:37:14;97342.78;;;-5.17;68.32
21401;BME280;18038;50.166;18.908;2023-01-30T07:40:21;97348.94;;;-5.18;67.91
21401;BME280;18038;50.166;18.908;2023-01-30T07:43:28;97364.41;;;-5.27;68.42
21401;BME280;18038;50.166;18.908;2023-01-30T07:46:34;97318.16;;;-5.24;68.33
21401;BME280;18038;50.166;18.908;2023-01-30T07:49:43;97342.41;;;-5.23;68.40
21401;BME280;18038;50.166;18.908;2023-01-30T07:52:50;97345.75;;;-5.10;68.23
21401;BME280;18038;50.166;18.908;2023-01-30T07:55:57;97350.97;;;-5.10;68.11
21401;BME280;18038;50.166;18.908;2023-01-30T07:59:03;97357.22;;;-5.13;68.34
21401;BME280;18038;50.166;18.908;2023-01-30T08:02:10;97346.47;;;-5.08;68.41
21401;BME280;18038;50.166;18.908;2023-01-30T08:05:19;97346.19;;;-4.92;68.39
21401;BME280;18038;50.166;18.908;2023-01-30T08:08:25;97354.25;;;-4.84;67.78
21401;BME280;18038;50.166;18.908;2023-01-30T08:11:31;97346.81;;;-4.77;67.77
21401;BME280;18038;50.166;18.908;2023-01-30T08:14:38;97335.91;;;-4.82;67.65
21401;BME280;18038;50.166;18.908;2023-01-30T08:17:44;97338.28;;;-4.68;67.48
21401;BME280;18038;50.166;18.908;2023-01-30T08:21:08;97318.75;;;-4.62;67.17
21401;BME280;18038;50.166;18.908;2023-01-30T08:24:22;97338.94;;;-4.19;65.77
21401;BME280;18038;50.166;18.908;2023-01-30T08:27:28;97328.81;;;-3.47;63.38
21401;BME280;18038;50.166;18.908;2023-01-30T08:30:34;97319.22;;;-2.93;61.29
21401;BME280;18038;50.166;18.908;2023-01-30T08:33:41;97331.50;;;-3.05;61.95
21401;BME280;18038;50.166;18.908;2023-01-30T08:36:50;97303.13;;;-3.30;62.73
21401;BME280;18038;50.166;18.908;2023-01-30T08:39:56;97326.38;;;-3.60;63.47
21401;BME280;18038;50.166;18.908;2023-01-30T08:43:03;97311.97;;;-3.86;64.71
21401;BME280;18038;50.166;18.908;2023-01-30T08:46:10;97305.91;;;-3.87;65.04
21401;BME280;18038;50.166;18.908;2023-01-30T08:49:18;97325.03;;;-3.97;65.30
21401;BME280;18038;50.166;18.908;2023-01-30T08:52:27;97316.75;;;-4.14;65.89
21401;BME280;18038;50.166;18.908;2023-01-30T08:55:33;97315.56;;;-4.21;66.44
21401;BME280;18038;50.166;18.908;2023-01-30T08:58:40;97311.53;;;-4.14;66.42
21401;BME280;18038;50.166;18.908;2023-01-30T09:01:47;97314.72;;;-4.10;65.88
21401;BME280;18038;50.166;18.908;2023-01-30T09:04:54;97299.31;;;-4.13;66.53
21401;BME280;18038;50.166;18.908;2023-01-30T09:08:02;97281.19;;;-4.26;66.72
21401;BME280;18038;50.166;18.908;2023-01-30T09:11:14;97293.50;;;-4.06;66.37
21401;BME280;18038;50.166;18.908;2023-01-30T09:14:21;97286.47;;;-3.94;65.82
21401;BME280;18038;50.166;18.908;2023-01-30T09:17:27;97277.03;;;-4.06;65.69
21401;BME280;18038;50.166;18.908;2023-01-30T09:20:42;97271.00;;;-4.18;66.78
21401;BME280;18038;50.166;18.908;2023-01-30T09:23:57;97262.47;;;-4.31;66.78
21401;BME280;18038;50.166;18.908;2023-01-30T09:27:06;97270.53;;;-4.23;66.76
21401;BME280;18038;50.166;18.908;2023-01-30T09:30:13;97260.13;;;-4.34;67.29
21401;BME280;18038;50.166;18.908;2023-01-30T09:33:20;97250.59;;;-4.13;67.25
21401;BME280;18038;50.166;18.908;2023-01-30T09:36:27;97255.69;;;-4.11;67.25
21401;BME280;18038;50.166;18.908;2023-01-30T09:39:41;97263.13;;;-4.07;66.88
21401;BME280;18038;50.166;18.908;2023-01-30T09:43:05;97239.69;;;-4.18;67.03
21401;BME280;18038;50.166;18.908;2023-01-30T09:46:34;97229.97;;;-4.16;67.65
21401;BME280;18038;50.166;18.908;2023-01-30T09:50:01;97232.22;;;-4.11;67.52
21401;BME280;18038;50.166;18.908;2023-01-30T09:53:28;97235.78;;;-4.12;67.54
21401;BME280;18038;50.166;18.908;2023-01-30T09:56:44;97231.38;;;-4.12;67.50
21401;BME280;18038;50.166;18.908;2023-01-30T09:59:58;97210.28;;;-4.09;68.27
21401;BME280;18038;50.166;18.908;2023-01-30T10:03:18;97207.44;;;-4.06;68.80
21401;BME280;18038;50.166;18.908;2023-01-30T10:06:44;97208.16;;;-4.15;70.25
21401;BME280;18038;50.166;18.908;2023-01-30T10:10:06;97190.25;;;-4.08;70.51
21401;BME280;18038;50.166;18.908;2023-01-30T10:13:59;97194.03;;;-4.01;71.14
21401;BME280;18038;50.166;18.908;2023-01-30T10:17:32;97205.03;;;-3.97;71.67
21401;BME280;18038;50.166;18.908;2023-01-30T10:20:51;97209.44;;;-4.09;72.22
21401;BME280;18038;50.166;18.908;2023-01-30T10:24:35;97194.44;;;-4.28;73.81
21401;BME280;18038;50.166;18.908;2023-01-30T10:27:54;97173.56;;;-4.17;74.05
21401;BME280;18038;50.166;18.908;2023-01-30T10:31:13;97167.31;;;-4.37;74.82
21401;BME280;18038;50.166;18.908;2023-01-30T10:34:26;97163.75;;;-4.36;76.31
21401;BME280;18038;50.166;18.908;2023-01-30T10:37:45;97153.88;;;-4.21;76.00
21401;BME280;18038;50.166;18.908;2023-01-30T10:41:09;97161.22;;;-4.15;76.06
21401;BME280;18038;50.166;18.908;2023-01-30T10:44:23;97143.50;;;-4.32;76.04
21401;BME280;18038;50.166;18.908;2023-01-30T10:47:47;97135.44;;;-4.29;75.70
21401;BME280;18038;50.166;18.908;2023-01-30T10:51:12;97131.91;;;-4.39;75.33
21401;BME280;18038;50.166;18.908;2023-01-30T10:54:33;97126.91;;;-4.31;75.07
21401;BME280;18038;50.166;18.908;2023-01-30T10:57:55;97134.94;;;-4.23;74.79
21401;BME280;18038;50.166;18.908;2023-01-30T11:01:18;97135.38;;;-4.18;74.95
21401;BME280;18038;50.166;18.908;2023-01-30T11:04:39;97119.94;;;-4.10;75.45
21401;BME280;18038;50.166;18.908;2023-01-30T11:07:57;97126.81;;;-4.09;75.23
21401;BME280;18038;50.166;18.908;2023-01-30T11:11:20;97109.50;;;-4.10;74.55
21401;BME280;18038;50.166;18.908;2023-01-30T11:14:50;97110.97;;;-4.17;74.95
21401;BME280;18038;50.166;18.908;2023-01-30T11:18:04;97100.53;;;-3.96;74.91
21401;BME280;18038;50.166;18.908;2023-01-30T11:21:35;97100.16;;;-3.91;74.43
21401;BME280;18038;50.166;18.908;2023-01-30T11:24:46;97081.59;;;-3.98;75.20
21401;BME280;18038;50.166;18.908;2023-01-30T11:27:55;97076.44;;;-3.88;75.02
21401;BME280;18038;50.166;18.908;2023-01-30T11:31:17;97074.53;;;-3.86;75.33
21401;BME280;18038;50.166;18.908;2023-01-30T11:34:42;97065.53;;;-3.72;75.32
21401;BME280;18038;50.166;18.908;2023-01-30T11:37:52;97062.38;;;-3.76;75.56
21401;BME280;18038;50.166;18.908;2023-01-30T11:41:15;97054.91;;;-3.60;74.93
21401;BME280;18038;50.166;18.908;2023-01-30T11:44:27;97049.38;;;-3.66;74.96
21401;BME280;18038;50.166;18.908;2023-01-30T11:47:35;97042.00;;;-3.61;75.28
21401;BME280;18038;50.166;18.908;2023-01-30T11:50:56;97039.56;;;-3.53;74.90
21401;BME280;18038;50.166;18.908;2023-01-30T11:54:17;97035.16;;;-3.52;75.02
21401;BME280;18038;50.166;18.908;2023-01-30T11:57:39;97016.72;;;-3.51;75.08
21401;BME280;18038;50.166;18.908;2023-01-30T12:00:50;97012.38;;;-3.50;74.49
21401;BME280;18038;50.166;18.908;2023-01-30T12:03:58;97011.84;;;-3.44;74.50
21401;BME280;18038;50.166;18.908;2023-01-30T12:07:09;97015.97;;;-3.42;74.02
21401;BME280;18038;50.166;18.908;2023-01-30T12:10:30;97019.53;;;-3.43;74.02
21401;BME280;18038;50.166;18.908;2023-01-30T12:13:39;97004.31;;;-3.28;73.70
21401;BME280;18038;50.166;18.908;2023-01-30T12:17:07;97003.19;;;-3.35;73.69
21401;BME280;18038;50.166;18.908;2023-01-30T12:20:43;97003.81;;;-3.22;73.47
21401;BME280;18038;50.166;18.908;2023-01-30T12:24:19;97008.53;;;-3.06;73.15
21401;BME280;18038;50.166;18.908;2023-01-30T12:27:57;97002.34;;;-2.95;72.66
21401;BME280;18038;50.166;18.908;2023-01-30T12:31:15;96996.31;;;-2.86;72.45
21401;BME280;18038;50.166;18.908;2023-01-30T12:34:26;96998.91;;;-2.86;73.08
21401;BME280;18038;50.166;18.908;2023-01-30T12:37:44;96993.69;;;-2.86;73.19
21401;BME280;18038;50.166;18.908;2023-01-30T12:41:18;97006.63;;;-2.84;74.08
21401;BME280;18038;50.166;18.908;2023-01-30T12:44:52;97002.06;;;-2.82;75.86
21401;BME280;18038;50.166;18.908;2023-01-30T12:48:34;96998.78;;;-2.94;76.56
21401;BME280;18038;50.166;18.908;2023-01-30T12:52:38;96990.75;;;-3.22;79.53
21401;BME280;18038;50.166;18.908;2023-01-30T12:56:22;96986.44;;;-3.32;80.59
21401;BME280;18038;50.166;18.908;2023-01-30T12:59:57;96986.53;;;-3.44;80.71
21401;BME280;18038;50.166;18.908;2023-01-30T13:03:28;96982.56;;;-3.38;80.18
21401;BME280;18038;50.166;18.908;2023-01-30T13:07:04;96970.06;;;-3.44;80.84
21401;BME280;18038;50.166;18.908;2023-01-30T13:10:20;96972.13;;;-3.48;80.63
21401;BME280;18038;50.166;18.908;2023-01-30T13:13:42;96983.66;;;-3.41;80.07
21401;BME280;18038;50.166;18.908;2023-01-30T13:17:13;96975.03;;;-3.31;78.75
21401;BME280;18038;50.166;18.908;2023-01-30T13:20:49;96968.84;;;-3.30;77.72
21401;BME280;18038;50.166;18.908;2023-01-30T13:24:13;96964.47;;;-3.20;77.44
21401;BME280;18038;50.166;18.908;2023-01-30T13:27:34;96954.88;;;-3.10;76.99
21401;BME280;18038;50.166;18.908;2023-01-30T13:30:47;96966.31;;;-3.01;76.46
21401;BME280;18038;50.166;18.908;2023-01-30T13:34:04;96961.91;;;-2.91;75.30
21401;BME280;18038;50.166;18.908;2023-01-30T13:37:15;96951.72;;;-3.04;75.19
21401;BME280;18038;50.166;18.908;2023-01-30T13:40:26;96951.59;;;-2.83;74.46
21401;BME280;18038;50.166;18.908;2023-01-30T13:43:46;96952.84;;;-2.77;74.27
21401;BME280;18038;50.166;18.908;2023-01-30T13:47:05;96936.63;;;-2.71;73.92
21401;BME280;18038;50.166;18.908;2023-01-30T13:50:48;96950.94;;;-2.65;73.87
21401;BME280;18038;50.166;18.908;2023-01-30T13:54:23;96945.69;;;-2.65;74.04
21401;BME280;18038;50.166;18.908;2023-01-30T13:57:49;96930.56;;;-2.62;74.07
21401;BME280;18038;50.166;18.908;2023-01-30T14:01:10;96935.78;;;-2.52;73.76
21401;BME280;18038;50.166;18.908;2023-01-30T14:04:45;96936.84;;;-2.35;72.95
21401;BME280;18038;50.166;18.908;2023-01-30T14:07:55;96922.44;;;-2.49;73.43
21401;BME280;18038;50.166;18.908;2023-01-30T14:11:02;96933.16;;;-2.52;73.91
21401;BME280;18038;50.166;18.908;2023-01-30T14:14:28;96937.16;;;-2.58;74.09
21401;BME280;18038;50.166;18.908;2023-01-30T14:17:38;96948.72;;;-2.60;73.96
21401;BME280;18038;50.166;18.908;2023-01-30T14:21:13;96940.72;;;-2.59;74.30
21401;BME280;18038;50.166;18.908;2023-01-30T14:24:26;96950.50;;;-2.51;74.21
21401;BME280;18038;50.166;18.908;2023-01-30T14:27:33;96950.91;;;-2.46;74.56
21401;BME280;18038;50.166;18.908;2023-01-30T14:30:46;96949.69;;;-2.42;74.21
21401;BME280;18038;50.166;18.908;2023-01-30T14:33:54;96954.22;;;-2.44;74.61
21401;BME280;18038;50.166;18.908;2023-01-30T14:37:00;96945.09;;;-2.40;74.46
21401;BME280;18038;50.166;18.908;2023-01-30T14:43:53;96954.91;;;-2.42;74.70
21401;BME280;18038;50.166;18.908;2023-01-30T14:46:59;96955.84;;;-2.43;75.24
21401;BME280;18038;50.166;18.908;2023-01-30T14:50:25;96951.72;;;-2.46;74.96
21401;BME280;18038;50.166;18.908;2023-01-30T14:53:33;96960.81;;;-2.40;75.21
21401;BME280;18038;50.166;18.908;2023-01-30T14:56:46;96961.66;;;-2.39;75.03
21401;BME280;18038;50.166;18.908;2023-01-30T15:00:04;96964.69;;;-2.34;74.75
21401;BME280;18038;50.166;18.908;2023-01-30T15:03:20;96963.41;;;-2.40;74.95
21401;BME280;18038;50.166;18.908;2023-01-30T15:06:34;96961.38;;;-2.36;75.19
21401;BME280;18038;50.166;18.908;2023-01-30T15:09:45;96967.13;;;-2.42;75.07
21401;BME280;18038;50.166;18.908;2023-01-30T15:17:11;96973.06;;;-2.31;75.42
21401;BME280;18038;50.166;18.908;2023-01-30T15:20:53;96974.03;;;-2.41;75.36
21401;BME280;18038;50.166;18.908;2023-01-30T15:28:32;96990.66;;;-2.33;75.64
21401;BME280;18038;50.166;18.908;2023-01-30T15:31:52;96990.81;;;-2.34;76.11
21401;BME280;18038;50.166;18.908;2023-01-30T15:35:09;97004.31;;;-2.39;76.96
21401;BME280;18038;50.166;18.908;2023-01-30T15:38:28;97011.59;;;-2.33;77.31
21401;BME280;18038;50.166;18.908;2023-01-30T15:41:37;96999.38;;;-2.42;77.41
21401;BME280;18038;50.166;18.908;2023-01-30T15:44:56;97003.34;;;-2.48;77.70
21401;BME280;18038;50.166;18.908;2023-01-30T15:48:31;97016.41;;;-2.38;77.36
21401;BME280;18038;50.166;18.908;2023-01-30T15:52:00;97010.94;;;-2.44;77.65
21401;BME280;18038;50.166;18.908;2023-01-30T15:55:15;97008.44;;;-2.36;77.28
21401;BME280;18038;50.166;18.908;2023-01-30T15:58:25;97009.69;;;-2.31;77.16
21401;BME280;18038;50.166;18.908;2023-01-30T16:01:36;97007.88;;;-2.40;77.12
21401;BME280;18038;50.166;18.908;2023-01-30T16:04:43;97024.00;;;-2.44;77.37
21401;BME280;18038;50.166;18.908;2023-01-30T16:07:51;97022.06;;;-2.33;76.95
21401;BME280;18038;50.166;18.908;2023-01-30T16:10:59;97027.69;;;-2.28;76.81
21401;BME280;18038;50.166;18.908;2023-01-30T16:14:11;97022.19;;;-2.25;76.70
21401;BME280;18038;50.166;18.908;2023-01-30T16:17:22;97030.72;;;-2.22;76.64
21401;BME280;18038;50.166;18.908;2023-01-30T16:20:40;97034.28;;;-2.14;76.40
21401;BME280;18038;50.166;18.908;2023-01-30T16:24:05;97039.41;;;-2.12;76.34
21401;BME280;18038;50.166;18.908;2023-01-30T16:27:24;97052.19;;;-2.09;75.86
21401;BME280;18038;50.166;18.908;2023-01-30T16:30:33;97049.72;;;-2.11;76.05
21401;BME280;18038;50.166;18.908;2023-01-30T16:33:54;97047.94;;;-2.10;76.23
21401;BME280;18038;50.166;18.908;2023-01-30T16:37:03;97049.00;;;-2.03;76.08
21401;BME280;18038;50.166;18.908;2023-01-30T16:40:14;97056.63;;;-2.00;75.93
21401;BME280;18038;50.166;18.908;2023-01-30T16:43:28;97049.72;;;-2.01;75.89
21401;BME280;18038;50.166;18.908;2023-01-30T16:46:58;97054.00;;;-2.00;76.20
21401;BME280;18038;50.166;18.908;2023-01-30T16:50:17;97049.59;;;-2.09;76.50
21401;BME280;18038;50.166;18.908;2023-01-30T16:53:29;97039.41;;;-2.12;76.80
21401;BME280;18038;50.166;18.908;2023-01-30T16:56:37;97039.00;;;-2.08;76.69
21401;BME280;18038;50.166;18.908;2023-01-30T16:59:54;97039.53;;;-2.14;76.64
21401;BME280;18038;50.166;18.908;2023-01-30T17:03:04;97047.25;;;-2.12;76.90
21401;BME280;18038;50.166;18.908;2023-01-30T17:06:22;97047.53;;;-2.15;76.95
21401;BME280;18038;50.166;18.908;2023-01-30T17:09:42;97051.38;;;-2.19;77.37
21401;BME280;18038;50.166;18.908;2023-01-30T17:12:50;97053.88;;;-2.18;77.46